ESGR/KVB METAR and TAF weather

Enter ICAO airport designator
Station Type Date Time Source
ESGR METAR 2021/03/04 10:20 UTC NOAA

ESGR 041020Z 35010KT 310V020 9999 BKN035 02/M07 Q1018


Station Type Date Time Source
ESGR Decoded METAR 2021/03/04 10:20 UTC NOAA

Skovde Flygplats, Sweden (ESGR) 58-27N 013-58E 105M
Mar 04, 2021 - 05:20 AM EST / 2021.03.04 1020 UTC
Wind: from the N (350 degrees) at 12 MPH (10 KT) (direction variable):0
Visibility: greater than 7 mile(s):0
Sky conditions: mostly cloudy
Temperature: 35 F (2 C)
Windchill: 26 F (-3 C):1
Dew Point: 19 F (-7 C)
Relative Humidity: 51%
Pressure (altimeter): 30.06 in. Hg (1018 hPa)
ob: ESGR 041020Z 35010KT 310V020 9999 BKN035 02/M07 Q1018
cycle: 10

Station Type Date Time Source
ESGR TAF 2009/06/28 04:50 UTC NOAA

METAR ESGR 280450Z AUTO VRB02KT 9999NDV NCD 17/12 Q1020

Example: see airport list